Weather observations for the past three days for
Hawthorne, Hawthorne Municipal Airport
Imperial (Metric)
Date Time (pdt) Wind (mph) Vis. (mi.) Weather Sky Cond. Temperature (ºF) Relative Humidity Wind Chill (°F) Heat Index (°F) Pressure Precipitation (in)
Air Dwpt 6 hour altimeter (in) sea level (mb) 1 hr 3 hr 6 hr
Max. Min.
04 12:53 W 15 G 25 10.00 Fair CLR 68 46.9 47% 30 1015.7
04 11:53 W 17 G 22 10.00 A Few Clouds FEW070 64.9 46.9 52% 30.01 1016.1
04 10:53 SW 10 10.00 A Few Clouds FEW029 66 48.9 66 59 54% 30.01 1016.1
04 09:53 NW 8 G 21 10.00 Fair CLR 63 48 58% 30 1015.9
04 08:53 W 10 10.00 Fair CLR 61 48 63% 29.99 1015.5
04 07:53 NW 6 10.00 Fair CLR 60.1 48.9 67% 29.98 1015.2
04 06:53 W 7 10.00 Mostly Cloudy BKN070 59 50 72% 29.98 1015.1
04 05:53 W 8 10.00 Overcast OVC065 60.1 50 70% 29.97 1014.7
04 04:53 W 7 10.00 Overcast OVC060 60.1 48 62.1 59 65% 29.96 1014.6
04 03:53 W 10 10.00 Overcast OVC060 60.1 50 70% 29.96 1014.4
04 02:53 W 3 10.00 Mostly Cloudy BKN050 59 51.1 75% 29.96 1014.5
04 01:53 W 7 10.00 Fair CLR 59 48.9 69% 29.97 1014.9
04 00:53 W 6 10.00 Overcast OVC060 60.1 48.9 67% 29.99 1015.4
03 23:53 W 14 10.00 Overcast OVC060 62.1 46 56% 29.99 1015.5
03 22:53 W 7 10.00 Overcast OVC055 61 50 64 61 67% 29.97 1014.8
03 21:53 W 8 10.00 Overcast OVC060 61 50 67% 29.98 1015.1
03 20:53 NW 6 10.00 Overcast OVC055 61 52 72% 29.97 1014.7
03 19:53 Vrbl 7 10.00 Overcast FEW025 OVC055 62.1 50 65% 29.95 1014.1
03 18:53 W 10 G 18 10.00 Overcast OVC050 62.1 50 65% 29.94 1013.8
03 17:53 W 9 10.00 Overcast OVC050 64 50 60% 29.92 1013.3
03 16:53 NW 9 10.00 Mostly Cloudy BKN050 64 52 66 63 65% 29.92 1012.9
03 15:53 W 14 10.00 Overcast FEW026 OVC046 64.9 51.1 61% 29.93 1013.3
03 14:53 W 12 10.00 Overcast OVC050 66 48.9 54% 29.94 1013.8
03 13:53 W 12 10.00 Overcast OVC048 66 46.9 50% 29.95 1014.0
03 12:53 W 12 G 18 10.00 Overcast OVC044 64.9 46.9 52% 29.95 1014.2
03 11:53 W 10 10.00 Overcast FEW032 OVC045 64.9 48.9 56% 29.97 1014.6
03 10:53 W 8 10.00 Overcast OVC038 63 50 63 60.1 63% 29.98 1015.1
03 09:53 W 8 10.00 Overcast OVC034 62.1 50 65% 29.96 1014.5
03 08:53 W 8 10.00 Overcast OVC031 61 52 72% 29.96 1014.3
03 07:53 SW 5 10.00 Overcast OVC026 61 51.1 70% 29.94 1013.9
03 06:53 Calm 10.00 Overcast OVC025 61 52 72% 29.92 1013.2
03 05:53 NW 3 10.00 Overcast OVC025 60.1 54 80% 29.91 1012.9
03 04:53 SW 3 10.00 Overcast OVC025 61 51.1 62.1 60.1 70% 29.9 1012.5
03 03:53 Calm 10.00 Overcast OVC025 61 51.1 70% 29.91 1012.8
03 02:53 Calm 10.00 Overcast OVC023 61 50 67% 29.91 1012.8
03 01:53 W 5 10.00 Overcast OVC019 61 52 72% 29.93 1013.4
03 00:53 SW 6 10.00 Overcast OVC017 61 53.1 75% 29.93 1013.4
02 23:53 W 5 10.00 Overcast OVC012 61 55 81% 29.92 1012.9
02 22:53 W 6 10.00 Overcast OVC011 61 55 64.9 60.1 81% 29.92 1013.1
02 21:53 W 7 10.00 Overcast OVC009 61 55 81% 29.92 1013.2
02 20:53 W 10 10.00 Overcast OVC010 61 55 81% 29.89 1012.2
02 19:53 W 8 10.00 Fair CLR 61 55 81% 29.86 1011.3
02 18:53 W 10 10.00 Fair CLR 63 54 73% 29.85 1010.8
02 17:53 W 8 10.00 Fair CLR 64 54 70% 29.85 1010.8
02 16:53 W 10 10.00 Fair CLR 64.9 54 66.9 63 68% 29.85 1010.8
02 15:53 W 12 10.00 A Few Clouds FEW017 66 54 65% 29.87 1011.3
02 14:53 W 13 10.00 A Few Clouds FEW017 66.9 55 66% 29.91 1012.7
02 13:53 W 12 10.00 Partly Cloudy SCT018 66.9 55.9 68% 29.93 1013.3
02 12:53 W 9 9.00 Overcast OVC015 64.9 55.9 73% 29.94 1013.6
02 11:53 W 9 7.00 Overcast OVC017 66 55.9 70% 29.97 1014.6
02 10:53 Calm 6.00 Overcast with Haze OVC013 63 55.9 63 60.1 78% 29.97 1014.8
02 09:53 Calm 6.00 Overcast with Haze OVC011 62.1 55.9 80% 29.99 1015.4
02 08:53 S 3 7.00 Overcast OVC010 61 55 81% 29.99 1015.4
02 07:53 Calm 7.00 Overcast OVC010 61 55 81% 29.97 1014.8
02 06:53 Calm 7.00 Overcast OVC009 60.1 55 84% 29.96 1014.5
02 05:53 SW 5 9.00 Overcast OVC009 60.1 55 84% 29.95 1014.1
02 04:53 W 6 7.00 Overcast OVC008 60.1 55 60.1 59 84% 29.94 1013.8
02 03:53 W 5 7.00 Overcast OVC008 60.1 55 84% 29.93 1013.5
02 02:53 SW 3 7.00 Overcast OVC007 59 55.9 90% 29.93 1013.3
02 01:53 W 6 9.00 A Few Clouds FEW015 59 55 87% 29.94 1013.6
02 00:53 Calm 10.00 Fair CLR 60.1 55 84% 29.95 1014.0
01 23:53 W 5 10.00 Partly Cloudy SCT011 60.1 55 84% 29.96 1014.3
01 22:53 W 3 9.00 Overcast OVC010 60.1 55 68 60.1 84% 29.95 1014.0
01 21:53 W 7 10.00 Overcast OVC011 61 55 81% 29.95 1014.0
01 20:53 W 7 10.00 Mostly Cloudy BKN013 62.1 55 78% 29.93 1013.4
01 19:53 W 7 10.00 A Few Clouds FEW013 63 55 76% 29.9 1012.5
01 18:53 W 12 G 20 10.00 Fair CLR 64 55 73% 29.89 1012.1
01 17:53 W 12 10.00 Fair CLR 66.9 55 66% 29.89 1011.9
01 16:53 W 14 G 22 10.00 Fair CLR 68 55.9 71.1 66 65% 29.89 1012.0
01 15:53 W 13 G 20 2.00 Fair with Haze CLR 69.1 55 61% 29.9 1012.2
01 14:53 SW 10 G 21 10.00 Fair CLR 68 54 61% 29.92 1012.9
01 13:53 W 9 10.00 Fair CLR 69.1 55 61% 29.93 1013.5
Date Time (pdt) Wind (mph) Vis. (mi.) Weather Sky Cond. Air Dwpt Max. Min. Relative Humidity Wind Chill (°F) Heat Index (°F) altimeter (in) sea level (mb) 1 hr 3 hr 6 hr
6 hour
Temperature (ºF) Pressure Precipitation (in)